Pasadena, TX

4:57 PM CDT en Agosto 04, 2015 (GMT -0500)
Preston Trail South | | Change Station
CLOSE
Current Station
Estación meteorológica personal
Location: Pasadena, TX
Altura: 39 ft
Estaciones meteorológicas cercanas

Alt 39 ft 29.64 °N, 95.17 °W | Updated 17 seconds ago

Muy nublado
Muy nublado
96.1 ° F
Sensación térmica 110 ° F
N
0.0
Viento Variable Viento desde Oeste
Gusts 0.0 mph

Hoy
Alta -- | Baja -- ° F
--% Posibilidad de precipitaciones
Ayer
Alta -- | Baja -- ° F
Precip. -- pul
6:41 AM 8:11 PM
Gibosa menguante, 74% visible
Presión 29.95 pul
Visibilidad 10.0 Millas
Nubes Muy nublado 2500 ft
Muy nublado 25000 ft
Índice de calor 110 ° F
Punto de rocío 76 ° F
Humedad 53%
Precipitaciones 0.00 pul
Espesor de la nieve No disponible.
UV 5 de una escala de 12
Polen 3.30 de una escala de 12
Calidad del aire No disponible.
Flu Activity No disponible.
METAR KEFD 042050Z 15011KT 10SM BKN025 BKN250 32/26 A2995

More Conditions Fewer Conditions

Presión 29.95 pul
Visibilidad 10.0 Millas
Nubes Muy nublado 2500 ft
Muy nublado 25000 ft
Índice de calor 110 ° F
Punto de rocío 76 ° F
Humedad 53%
Precipitaciones 0.00 pul
Espesor de la nieve No disponible.
UV 5 de una escala de 12
Polen 3.30 de una escala de 12
Calidad del aire No disponible.
Flu Activity No disponible.
METAR KEFD 042050Z 15011KT 10SM BKN025 BKN250 32/26 A2995

More Conditions Fewer Conditions

10-Day Weather Forecast

×

Almanac

Astronomía

Aug. 04, 2015 Salida Puesta
Hora real
Crepúsculo civil
Crepúsculo náutico
Crepúsculo astronómico
Luna
Horas de luz
Horas de luz
Tomorrow will be .
, % of the Moon is Illuminated

Extremos de hoy

Máximos del estado Bajos del estado

Community

WunderPhotos

Upload Photos

1,843,992 ¡fotos cargadas!

WunderBlogs® & News

Nearby

Calidad del aire

  Calidad del aire Índice AQ Contaminante
Not available.

Grosos de nieve

Estación Profundido Altura

Actividad de terremotos

Ciudad Distance Mag. Tiempo y dato
Magnitud mínima muestra es 2,5.

Temperaturas de aguas costeras

Lugar Temperatura

Stations

Estaciones meteorológicas cercanas

Ubicación de la estación Temp. Vientos helados Punto de rocío Humedad Viento Precip. Alt Actualizado Tipo